sensor_id;sensor_type;location;lat;lon;timestamp;pressure;altitude;pressure_sealevel;temperature;humidity
69214;BME280;56325;47.030;18.518;2023-07-20T00:02:11;99750.50;;;23.22;73.19
69214;BME280;56325;47.030;18.518;2023-07-20T00:04:46;99751.78;;;23.21;73.27
69214;BME280;56325;47.030;18.518;2023-07-20T00:07:21;99749.53;;;23.19;73.24
69214;BME280;56325;47.030;18.518;2023-07-20T00:09:58;99743.38;;;23.21;73.19
69214;BME280;56325;47.030;18.518;2023-07-20T00:12:32;99737.78;;;23.36;72.51
69214;BME280;56325;47.030;18.518;2023-07-20T00:15:08;99724.88;;;23.18;73.07
69214;BME280;56325;47.030;18.518;2023-07-20T00:17:42;99734.94;;;23.13;73.44
69214;BME280;56325;47.030;18.518;2023-07-20T00:20:18;99733.25;;;23.03;73.95
69214;BME280;56325;47.030;18.518;2023-07-20T00:22:54;99738.09;;;23.02;73.99
69214;BME280;56325;47.030;18.518;2023-07-20T00:25:31;99744.28;;;23.08;73.73
69214;BME280;56325;47.030;18.518;2023-07-20T00:28:06;99768.16;;;22.43;76.51
69214;BME280;56325;47.030;18.518;2023-07-20T00:30:41;99748.44;;;22.71;75.29
69214;BME280;56325;47.030;18.518;2023-07-20T00:33:17;99770.56;;;22.82;74.99
69214;BME280;56325;47.030;18.518;2023-07-20T00:35:51;99781.41;;;22.42;76.59
69214;BME280;56325;47.030;18.518;2023-07-20T00:38:27;99782.25;;;22.66;75.57
69214;BME280;56325;47.030;18.518;2023-07-20T00:41:03;99761.72;;;22.71;74.96
69214;BME280;56325;47.030;18.518;2023-07-20T00:43:37;99765.41;;;22.58;75.64
69214;BME280;56325;47.030;18.518;2023-07-20T00:46:12;99760.25;;;22.77;74.76
69214;BME280;56325;47.030;18.518;2023-07-20T00:48:47;99747.59;;;22.84;74.38
69214;BME280;56325;47.030;18.518;2023-07-20T00:51:23;99742.75;;;22.92;73.89
69214;BME280;56325;47.030;18.518;2023-07-20T00:54:00;99737.34;;;22.94;73.91
69214;BME280;56325;47.030;18.518;2023-07-20T00:56:36;99716.09;;;22.63;74.78
69214;BME280;56325;47.030;18.518;2023-07-20T00:59:10;99722.81;;;22.52;75.45
69214;BME280;56325;47.030;18.518;2023-07-20T01:01:45;99706.78;;;22.68;74.86
69214;BME280;56325;47.030;18.518;2023-07-20T01:04:21;99697.81;;;22.69;74.74
69214;BME280;56325;47.030;18.518;2023-07-20T01:07:00;99703.81;;;22.73;74.61
69214;BME280;56325;47.030;18.518;2023-07-20T01:09:43;99707.78;;;22.85;73.94
69214;BME280;56325;47.030;18.518;2023-07-20T01:12:22;99707.97;;;22.80;74.10
69214;BME280;56325;47.030;18.518;2023-07-20T01:15:00;99716.91;;;22.78;74.16
69214;BME280;56325;47.030;18.518;2023-07-20T01:17:35;99714.78;;;22.64;74.64
69214;BME280;56325;47.030;18.518;2023-07-20T01:20:13;99714.09;;;22.78;74.18
69214;BME280;56325;47.030;18.518;2023-07-20T01:23:02;99719.31;;;22.74;74.14
69214;BME280;56325;47.030;18.518;2023-07-20T01:26:10;99719.94;;;22.88;73.51
69214;BME280;56325;47.030;18.518;2023-07-20T01:31:44;99726.91;;;22.51;74.87
69214;BME280;56325;47.030;18.518;2023-07-20T01:34:22;99736.00;;;22.80;73.81
69214;BME280;56325;47.030;18.518;2023-07-20T01:36:57;99731.69;;;22.79;73.61
69214;BME280;56325;47.030;18.518;2023-07-20T01:39:35;99739.66;;;22.67;74.05
69214;BME280;56325;47.030;18.518;2023-07-20T01:42:10;99741.16;;;22.68;73.59
69214;BME280;56325;47.030;18.518;2023-07-20T01:44:45;99742.97;;;22.58;74.02
69214;BME280;56325;47.030;18.518;2023-07-20T01:47:21;99743.41;;;22.70;73.04
69214;BME280;56325;47.030;18.518;2023-07-20T01:49:56;99754.41;;;22.68;72.66
69214;BME280;56325;47.030;18.518;2023-07-20T01:52:31;99757.06;;;22.30;73.23
69214;BME280;56325;47.030;18.518;2023-07-20T01:55:06;99754.88;;;22.36;73.04
69214;BME280;56325;47.030;18.518;2023-07-20T01:57:41;99756.75;;;22.41;72.43
69214;BME280;56325;47.030;18.518;2023-07-20T02:00:17;99759.88;;;22.30;72.52
69214;BME280;56325;47.030;18.518;2023-07-20T02:02:55;99762.63;;;22.22;72.85
69214;BME280;56325;47.030;18.518;2023-07-20T02:05:30;99758.84;;;21.91;74.70
69214;BME280;56325;47.030;18.518;2023-07-20T02:08:05;99758.09;;;21.90;74.96
69214;BME280;56325;47.030;18.518;2023-07-20T02:10:39;99753.09;;;21.97;74.91
69214;BME280;56325;47.030;18.518;2023-07-20T02:13:14;99759.59;;;21.91;75.13
69214;BME280;56325;47.030;18.518;2023-07-20T02:15:48;99759.75;;;21.86;75.52
69214;BME280;56325;47.030;18.518;2023-07-20T02:18:25;99767.66;;;21.95;75.35
69214;BME280;56325;47.030;18.518;2023-07-20T02:21:00;99773.97;;;22.16;74.68
69214;BME280;56325;47.030;18.518;2023-07-20T02:23:35;99768.97;;;22.22;74.52
69214;BME280;56325;47.030;18.518;2023-07-20T02:26:09;99773.19;;;21.87;76.10
69214;BME280;56325;47.030;18.518;2023-07-20T02:28:44;99767.66;;;21.46;78.21
69214;BME280;56325;47.030;18.518;2023-07-20T02:31:19;99769.44;;;21.36;79.45
69214;BME280;56325;47.030;18.518;2023-07-20T02:33:55;99762.47;;;21.29;80.03
69214;BME280;56325;47.030;18.518;2023-07-20T02:36:30;99773.03;;;21.44;79.55
69214;BME280;56325;47.030;18.518;2023-07-20T02:39:05;99762.06;;;21.46;79.76
69214;BME280;56325;47.030;18.518;2023-07-20T02:41:41;99776.72;;;21.59;78.85
69214;BME280;56325;47.030;18.518;2023-07-20T02:44:15;99768.34;;;21.59;78.53
69214;BME280;56325;47.030;18.518;2023-07-20T02:46:50;99769.69;;;21.66;78.06
69214;BME280;56325;47.030;18.518;2023-07-20T02:49:26;99776.53;;;21.86;77.47
69214;BME280;56325;47.030;18.518;2023-07-20T02:52:00;99772.16;;;21.98;76.87
69214;BME280;56325;47.030;18.518;2023-07-20T02:54:35;99786.16;;;21.98;76.71
69214;BME280;56325;47.030;18.518;2023-07-20T02:57:09;99785.13;;;21.88;76.73
69214;BME280;56325;47.030;18.518;2023-07-20T02:59:44;99782.06;;;21.99;76.31
69214;BME280;56325;47.030;18.518;2023-07-20T03:02:19;99784.44;;;21.95;76.72
69214;BME280;56325;47.030;18.518;2023-07-20T03:04:54;99790.78;;;21.96;76.91
69214;BME280;56325;47.030;18.518;2023-07-20T03:07:30;99799.41;;;21.98;76.70
69214;BME280;56325;47.030;18.518;2023-07-20T03:10:06;99801.38;;;22.10;76.29
69214;BME280;56325;47.030;18.518;2023-07-20T03:12:42;99808.78;;;22.29;75.73
69214;BME280;56325;47.030;18.518;2023-07-20T03:15:17;99812.72;;;22.05;76.80
69214;BME280;56325;47.030;18.518;2023-07-20T03:17:52;99817.06;;;21.64;78.62
69214;BME280;56325;47.030;18.518;2023-07-20T03:20:28;99816.84;;;21.41;79.30
69214;BME280;56325;47.030;18.518;2023-07-20T03:23:03;99813.97;;;21.20;80.42
69214;BME280;56325;47.030;18.518;2023-07-20T03:25:38;99824.22;;;21.18;80.79
69214;BME280;56325;47.030;18.518;2023-07-20T03:28:13;99820.09;;;21.32;80.49
69214;BME280;56325;47.030;18.518;2023-07-20T03:30:53;99821.75;;;21.48;79.48
69214;BME280;56325;47.030;18.518;2023-07-20T03:33:28;99811.53;;;21.51;79.19
69214;BME280;56325;47.030;18.518;2023-07-20T03:36:05;99813.72;;;21.66;78.58
69214;BME280;56325;47.030;18.518;2023-07-20T03:38:39;99822.22;;;21.81;77.75
69214;BME280;56325;47.030;18.518;2023-07-20T03:41:14;99816.41;;;21.79;78.14
69214;BME280;56325;47.030;18.518;2023-07-20T03:43:49;99819.56;;;21.75;78.16
69214;BME280;56325;47.030;18.518;2023-07-20T03:46:24;99830.22;;;21.77;78.25
69214;BME280;56325;47.030;18.518;2023-07-20T03:48:59;99835.94;;;21.92;77.51
69214;BME280;56325;47.030;18.518;2023-07-20T03:51:34;99840.22;;;21.93;77.25
69214;BME280;56325;47.030;18.518;2023-07-20T03:54:09;99840.31;;;21.80;77.86
69214;BME280;56325;47.030;18.518;2023-07-20T03:56:44;99847.28;;;21.86;77.61
69214;BME280;56325;47.030;18.518;2023-07-20T03:59:18;99838.25;;;22.01;77.08
69214;BME280;56325;47.030;18.518;2023-07-20T04:01:54;99843.09;;;22.01;77.13
69214;BME280;56325;47.030;18.518;2023-07-20T04:04:28;99840.03;;;22.12;76.83
69214;BME280;56325;47.030;18.518;2023-07-20T04:07:04;99838.03;;;22.20;76.49
69214;BME280;56325;47.030;18.518;2023-07-20T04:09:41;99843.69;;;22.28;76.25
69214;BME280;56325;47.030;18.518;2023-07-20T04:12:15;99840.69;;;22.26;76.34
69214;BME280;56325;47.030;18.518;2023-07-20T04:14:50;99843.94;;;22.37;76.03
69214;BME280;56325;47.030;18.518;2023-07-20T04:17:25;99847.16;;;22.41;76.17
69214;BME280;56325;47.030;18.518;2023-07-20T04:19:59;99849.06;;;22.54;75.74
69214;BME280;56325;47.030;18.518;2023-07-20T04:22:35;99848.37;;;22.61;75.58
69214;BME280;56325;47.030;18.518;2023-07-20T04:25:11;99841.25;;;22.60;75.71
69214;BME280;56325;47.030;18.518;2023-07-20T04:27:46;99846.19;;;22.75;75.19
69214;BME280;56325;47.030;18.518;2023-07-20T04:30:21;99849.19;;;22.77;75.00
69214;BME280;56325;47.030;18.518;2023-07-20T04:32:56;99855.06;;;22.50;76.31
69214;BME280;56325;47.030;18.518;2023-07-20T04:35:48;99852.44;;;22.52;76.39
69214;BME280;56325;47.030;18.518;2023-07-20T04:38:25;99843.19;;;22.73;75.55
69214;BME280;56325;47.030;18.518;2023-07-20T04:41:03;99847.47;;;22.66;76.05
69214;BME280;56325;47.030;18.518;2023-07-20T04:43:41;99846.41;;;22.77;75.52
69214;BME280;56325;47.030;18.518;2023-07-20T04:46:17;99851.31;;;22.55;76.47
69214;BME280;56325;47.030;18.518;2023-07-20T04:48:52;99847.56;;;22.45;77.03
69214;BME280;56325;47.030;18.518;2023-07-20T04:51:27;99853.34;;;22.47;77.49
69214;BME280;56325;47.030;18.518;2023-07-20T04:54:05;99860.00;;;22.37;78.01
69214;BME280;56325;47.030;18.518;2023-07-20T04:56:40;99858.59;;;22.51;77.99
69214;BME280;56325;47.030;18.518;2023-07-20T04:59:15;99864.97;;;22.51;78.51
69214;BME280;56325;47.030;18.518;2023-07-20T05:01:50;99868.41;;;22.73;77.70
69214;BME280;56325;47.030;18.518;2023-07-20T05:04:24;99868.12;;;22.55;78.82
69214;BME280;56325;47.030;18.518;2023-07-20T05:07:10;99872.03;;;22.45;79.90
69214;BME280;56325;47.030;18.518;2023-07-20T05:09:46;99864.91;;;22.44;80.80
69214;BME280;56325;47.030;18.518;2023-07-20T05:12:21;99863.72;;;22.32;81.47
69214;BME280;56325;47.030;18.518;2023-07-20T05:14:56;99867.38;;;22.55;80.90
69214;BME280;56325;47.030;18.518;2023-07-20T05:17:31;99867.31;;;22.40;81.70
69214;BME280;56325;47.030;18.518;2023-07-20T05:20:07;99865.72;;;22.60;81.29
69214;BME280;56325;47.030;18.518;2023-07-20T05:22:43;99862.25;;;22.74;80.58
69214;BME280;56325;47.030;18.518;2023-07-20T05:25:19;99869.47;;;22.62;81.30
69214;BME280;56325;47.030;18.518;2023-07-20T05:27:56;99870.03;;;22.61;81.82
69214;BME280;56325;47.030;18.518;2023-07-20T05:30:30;99867.81;;;22.67;82.01
69214;BME280;56325;47.030;18.518;2023-07-20T05:33:05;99867.97;;;22.89;80.97
69214;BME280;56325;47.030;18.518;2023-07-20T05:35:40;99866.59;;;23.19;80.04
69214;BME280;56325;47.030;18.518;2023-07-20T05:38:14;99862.34;;;23.33;79.50
69214;BME280;56325;47.030;18.518;2023-07-20T05:40:50;99862.16;;;23.46;79.01
69214;BME280;56325;47.030;18.518;2023-07-20T05:43:25;99865.22;;;23.64;78.21
69214;BME280;56325;47.030;18.518;2023-07-20T05:45:59;99867.50;;;23.73;77.21
69214;BME280;56325;47.030;18.518;2023-07-20T05:48:34;99863.19;;;23.87;76.48
69214;BME280;56325;47.030;18.518;2023-07-20T05:51:09;99878.56;;;24.09;75.49
69214;BME280;56325;47.030;18.518;2023-07-20T05:53:44;99884.00;;;24.07;74.87
69214;BME280;56325;47.030;18.518;2023-07-20T05:56:20;99878.37;;;24.22;74.50
69214;BME280;56325;47.030;18.518;2023-07-20T05:58:55;99883.06;;;24.19;74.24
69214;BME280;56325;47.030;18.518;2023-07-20T06:03:12;99879.34;;;25.03;71.19
69214;BME280;56325;47.030;18.518;2023-07-20T06:05:47;99879.34;;;25.03;71.19
69214;BME280;56325;47.030;18.518;2023-07-20T06:08:21;99891.47;;;24.50;68.16
69214;BME280;56325;47.030;18.518;2023-07-20T06:10:56;99897.47;;;24.46;67.23
69214;BME280;56325;47.030;18.518;2023-07-20T06:13:31;99897.81;;;24.58;66.12
69214;BME280;56325;47.030;18.518;2023-07-20T06:16:05;99896.31;;;24.49;65.37
69214;BME280;56325;47.030;18.518;2023-07-20T06:18:42;99890.31;;;24.61;65.18
69214;BME280;56325;47.030;18.518;2023-07-20T06:21:16;99896.72;;;24.46;65.46
69214;BME280;56325;47.030;18.518;2023-07-20T06:23:51;99906.81;;;24.64;65.70
69214;BME280;56325;47.030;18.518;2023-07-20T06:26:26;99895.53;;;24.72;65.39
69214;BME280;56325;47.030;18.518;2023-07-20T06:29:01;99906.41;;;24.68;63.72
69214;BME280;56325;47.030;18.518;2023-07-20T06:31:36;99917.47;;;24.66;62.60
69214;BME280;56325;47.030;18.518;2023-07-20T06:34:12;99923.25;;;24.83;60.98
69214;BME280;56325;47.030;18.518;2023-07-20T06:36:47;99912.06;;;24.60;61.68
69214;BME280;56325;47.030;18.518;2023-07-20T06:39:22;99910.91;;;24.78;59.62
69214;BME280;56325;47.030;18.518;2023-07-20T06:42:00;99908.25;;;24.88;58.62
69214;BME280;56325;47.030;18.518;2023-07-20T06:44:37;99907.13;;;24.99;56.71
69214;BME280;56325;47.030;18.518;2023-07-20T06:47:12;99905.16;;;25.16;55.39
69214;BME280;56325;47.030;18.518;2023-07-20T06:49:47;99909.25;;;25.23;53.92
69214;BME280;56325;47.030;18.518;2023-07-20T06:52:23;99910.56;;;25.22;52.57
69214;BME280;56325;47.030;18.518;2023-07-20T06:54:57;99901.34;;;25.29;51.98
69214;BME280;56325;47.030;18.518;2023-07-20T06:57:37;99905.22;;;25.41;51.79
69214;BME280;56325;47.030;18.518;2023-07-20T07:00:12;99908.03;;;25.41;51.45
69214;BME280;56325;47.030;18.518;2023-07-20T07:02:47;99907.44;;;25.51;52.63
69214;BME280;56325;47.030;18.518;2023-07-20T07:05:24;99913.38;;;25.62;52.25
69214;BME280;56325;47.030;18.518;2023-07-20T07:08:09;99915.38;;;25.77;50.47
69214;BME280;56325;47.030;18.518;2023-07-20T07:10:43;99909.91;;;25.79;50.88
69214;BME280;56325;47.030;18.518;2023-07-20T07:13:18;99910.84;;;25.82;50.23
69214;BME280;56325;47.030;18.518;2023-07-20T07:15:53;99919.63;;;25.86;50.52
69214;BME280;56325;47.030;18.518;2023-07-20T07:18:27;99918.41;;;25.71;50.81
69214;BME280;56325;47.030;18.518;2023-07-20T07:21:04;99929.56;;;26.11;50.73
69214;BME280;56325;47.030;18.518;2023-07-20T07:23:39;99927.38;;;26.02;50.83
69214;BME280;56325;47.030;18.518;2023-07-20T07:26:14;99926.06;;;26.03;49.00
69214;BME280;56325;47.030;18.518;2023-07-20T07:28:48;99925.87;;;26.26;48.91
69214;BME280;56325;47.030;18.518;2023-07-20T07:31:24;99931.75;;;26.21;47.90
69214;BME280;56325;47.030;18.518;2023-07-20T07:33:59;99938.44;;;26.33;47.88
69214;BME280;56325;47.030;18.518;2023-07-20T07:36:35;99930.38;;;26.29;47.70
69214;BME280;56325;47.030;18.518;2023-07-20T07:39:10;99939.22;;;26.26;47.23
69214;BME280;56325;47.030;18.518;2023-07-20T07:41:47;99935.81;;;26.35;45.73
69214;BME280;56325;47.030;18.518;2023-07-20T07:44:22;99931.84;;;26.38;46.36
69214;BME280;56325;47.030;18.518;2023-07-20T07:46:57;99940.75;;;26.69;46.85
69214;BME280;56325;47.030;18.518;2023-07-20T07:49:32;99944.66;;;26.73;46.38
69214;BME280;56325;47.030;18.518;2023-07-20T07:52:07;99939.41;;;26.53;46.55
69214;BME280;56325;47.030;18.518;2023-07-20T07:54:42;99937.28;;;26.61;47.05
69214;BME280;56325;47.030;18.518;2023-07-20T07:57:17;99943.84;;;26.81;46.70
69214;BME280;56325;47.030;18.518;2023-07-20T07:59:52;99953.22;;;27.18;47.80
69214;BME280;56325;47.030;18.518;2023-07-20T08:02:26;99941.34;;;27.02;46.41
69214;BME280;56325;47.030;18.518;2023-07-20T08:05:01;99943.19;;;27.07;46.21
69214;BME280;56325;47.030;18.518;2023-07-20T08:07:37;99946.91;;;27.09;45.61
69214;BME280;56325;47.030;18.518;2023-07-20T08:10:12;99944.59;;;27.16;45.54
69214;BME280;56325;47.030;18.518;2023-07-20T08:12:46;99938.28;;;27.25;45.36
69214;BME280;56325;47.030;18.518;2023-07-20T08:15:21;99933.66;;;27.47;46.50
69214;BME280;56325;47.030;18.518;2023-07-20T08:17:56;99928.94;;;27.76;45.90
69214;BME280;56325;47.030;18.518;2023-07-20T08:20:31;99930.69;;;27.98;45.88
69214;BME280;56325;47.030;18.518;2023-07-20T08:23:07;99924.06;;;27.86;45.18
69214;BME280;56325;47.030;18.518;2023-07-20T08:25:42;99927.59;;;27.77;44.37
69214;BME280;56325;47.030;18.518;2023-07-20T08:28:17;99928.81;;;27.84;44.27
69214;BME280;56325;47.030;18.518;2023-07-20T08:30:52;99938.47;;;27.81;44.39
69214;BME280;56325;47.030;18.518;2023-07-20T08:33:26;99936.00;;;27.94;43.18
69214;BME280;56325;47.030;18.518;2023-07-20T08:36:03;99934.13;;;28.06;43.19
69214;BME280;56325;47.030;18.518;2023-07-20T08:38:40;99932.63;;;28.32;45.70
69214;BME280;56325;47.030;18.518;2023-07-20T08:41:16;99936.94;;;28.33;44.69
69214;BME280;56325;47.030;18.518;2023-07-20T08:43:54;99938.88;;;28.04;43.35
69214;BME280;56325;47.030;18.518;2023-07-20T08:46:29;99945.91;;;28.13;43.30
69214;BME280;56325;47.030;18.518;2023-07-20T08:49:04;99941.09;;;28.32;43.06
69214;BME280;56325;47.030;18.518;2023-07-20T08:51:39;99946.47;;;28.38;43.22
69214;BME280;56325;47.030;18.518;2023-07-20T08:54:16;99953.66;;;28.49;42.10
69214;BME280;56325;47.030;18.518;2023-07-20T08:56:51;99963.31;;;28.46;42.79
69214;BME280;56325;47.030;18.518;2023-07-20T08:59:25;99948.13;;;28.51;42.92
69214;BME280;56325;47.030;18.518;2023-07-20T09:02:02;99950.72;;;28.85;42.52
69214;BME280;56325;47.030;18.518;2023-07-20T09:04:38;99956.19;;;28.54;41.95
69214;BME280;56325;47.030;18.518;2023-07-20T09:07:14;99957.53;;;28.63;42.19
69214;BME280;56325;47.030;18.518;2023-07-20T09:09:51;99959.62;;;28.82;41.04
69214;BME280;56325;47.030;18.518;2023-07-20T09:12:26;99962.75;;;28.57;40.28
69214;BME280;56325;47.030;18.518;2023-07-20T09:15:00;99972.88;;;28.69;40.31
69214;BME280;56325;47.030;18.518;2023-07-20T09:17:35;99964.06;;;28.65;39.96
69214;BME280;56325;47.030;18.518;2023-07-20T09:20:09;99955.06;;;28.96;41.07
69214;BME280;56325;47.030;18.518;2023-07-20T09:22:44;99955.50;;;28.92;40.43
69214;BME280;56325;47.030;18.518;2023-07-20T09:25:20;99959.69;;;29.01;41.29
69214;BME280;56325;47.030;18.518;2023-07-20T09:28:02;99953.28;;;28.91;39.90
69214;BME280;56325;47.030;18.518;2023-07-20T09:30:37;99949.50;;;28.79;39.75
69214;BME280;56325;47.030;18.518;2023-07-20T09:33:18;99945.34;;;28.80;39.83
69214;BME280;56325;47.030;18.518;2023-07-20T09:36:02;99953.56;;;28.95;40.35
69214;BME280;56325;47.030;18.518;2023-07-20T09:38:58;99951.78;;;29.09;39.57
69214;BME280;56325;47.030;18.518;2023-07-20T09:41:43;99943.00;;;29.05;39.47
69214;BME280;56325;47.030;18.518;2023-07-20T09:44:19;99950.59;;;29.12;39.62
69214;BME280;56325;47.030;18.518;2023-07-20T09:46:57;99941.34;;;29.21;40.10
69214;BME280;56325;47.030;18.518;2023-07-20T09:49:32;99948.50;;;29.22;39.61
69214;BME280;56325;47.030;18.518;2023-07-20T09:52:09;99950.75;;;28.95;40.87
69214;BME280;56325;47.030;18.518;2023-07-20T09:54:46;99963.03;;;28.70;41.61
69214;BME280;56325;47.030;18.518;2023-07-20T09:57:22;99951.22;;;28.35;41.35
69214;BME280;56325;47.030;18.518;2023-07-20T09:59:57;99957.38;;;28.51;40.99
69214;BME280;56325;47.030;18.518;2023-07-20T10:02:41;99938.34;;;28.81;40.77
69214;BME280;56325;47.030;18.518;2023-07-20T10:05:16;99948.06;;;29.16;39.80
69214;BME280;56325;47.030;18.518;2023-07-20T10:07:52;99948.03;;;29.35;41.38
69214;BME280;56325;47.030;18.518;2023-07-20T10:10:47;99944.75;;;29.49;39.27
69214;BME280;56325;47.030;18.518;2023-07-20T10:13:26;99960.59;;;29.92;39.88
69214;BME280;56325;47.030;18.518;2023-07-20T10:16:02;99956.13;;;29.89;39.90
69214;BME280;56325;47.030;18.518;2023-07-20T10:18:41;99954.47;;;29.96;38.43
69214;BME280;56325;47.030;18.518;2023-07-20T10:21:20;99967.94;;;29.76;39.96
69214;BME280;56325;47.030;18.518;2023-07-20T10:23:59;99956.94;;;30.21;40.22
69214;BME280;56325;47.030;18.518;2023-07-20T10:26:35;99962.97;;;30.06;38.55
69214;BME280;56325;47.030;18.518;2023-07-20T10:29:15;99958.34;;;30.00;39.45
69214;BME280;56325;47.030;18.518;2023-07-20T10:31:51;99958.25;;;29.79;39.28
69214;BME280;56325;47.030;18.518;2023-07-20T10:34:28;99946.38;;;29.61;38.39
69214;BME280;56325;47.030;18.518;2023-07-20T10:37:03;99942.44;;;29.76;38.13
69214;BME280;56325;47.030;18.518;2023-07-20T10:39:37;99940.66;;;29.71;37.80
69214;BME280;56325;47.030;18.518;2023-07-20T10:42:14;99939.94;;;29.61;37.62
69214;BME280;56325;47.030;18.518;2023-07-20T10:44:51;99938.59;;;29.72;38.07
69214;BME280;56325;47.030;18.518;2023-07-20T10:47:25;99944.47;;;29.35;38.14
69214;BME280;56325;47.030;18.518;2023-07-20T10:50:01;99932.22;;;29.52;38.25
69214;BME280;56325;47.030;18.518;2023-07-20T10:52:39;99929.91;;;29.79;38.91
69214;BME280;56325;47.030;18.518;2023-07-20T10:55:14;99934.66;;;29.86;38.36
69214;BME280;56325;47.030;18.518;2023-07-20T10:58:06;99935.97;;;30.05;37.84
69214;BME280;56325;47.030;18.518;2023-07-20T11:01:03;99941.50;;;30.03;37.08
69214;BME280;56325;47.030;18.518;2023-07-20T11:03:39;99932.78;;;29.60;37.78
69214;BME280;56325;47.030;18.518;2023-07-20T11:06:30;99940.37;;;29.67;38.19
69214;BME280;56325;47.030;18.518;2023-07-20T11:09:08;99936.16;;;29.87;38.03
69214;BME280;56325;47.030;18.518;2023-07-20T11:11:46;99929.69;;;29.96;37.78
69214;BME280;56325;47.030;18.518;2023-07-20T11:14:23;99948.47;;;30.11;37.78
69214;BME280;56325;47.030;18.518;2023-07-20T11:17:11;99941.97;;;30.30;37.08
69214;BME280;56325;47.030;18.518;2023-07-20T11:19:48;99944.28;;;30.12;37.67
69214;BME280;56325;47.030;18.518;2023-07-20T11:22:25;99938.75;;;30.14;37.54
69214;BME280;56325;47.030;18.518;2023-07-20T11:24:59;99953.59;;;29.93;38.03
69214;BME280;56325;47.030;18.518;2023-07-20T11:27:44;99940.97;;;30.16;37.58
69214;BME280;56325;47.030;18.518;2023-07-20T11:30:21;99944.97;;;30.22;36.93
69214;BME280;56325;47.030;18.518;2023-07-20T11:32:56;99946.22;;;30.10;36.35
69214;BME280;56325;47.030;18.518;2023-07-20T11:35:35;99948.41;;;30.21;37.70
69214;BME280;56325;47.030;18.518;2023-07-20T11:38:10;99949.41;;;29.94;36.71
69214;BME280;56325;47.030;18.518;2023-07-20T11:40:46;99943.41;;;30.10;36.25
69214;BME280;56325;47.030;18.518;2023-07-20T11:43:21;99944.28;;;30.12;36.15
69214;BME280;56325;47.030;18.518;2023-07-20T11:45:56;99946.56;;;29.94;34.23
69214;BME280;56325;47.030;18.518;2023-07-20T11:48:32;99946.44;;;30.33;35.35
69214;BME280;56325;47.030;18.518;2023-07-20T11:51:13;99947.91;;;30.55;34.06
69214;BME280;56325;47.030;18.518;2023-07-20T11:53:48;99949.31;;;30.45;34.25
69214;BME280;56325;47.030;18.518;2023-07-20T11:56:24;99952.66;;;30.62;35.14
69214;BME280;56325;47.030;18.518;2023-07-20T11:58:59;99952.19;;;30.66;35.61
69214;BME280;56325;47.030;18.518;2023-07-20T12:01:34;99956.06;;;30.40;34.03
69214;BME280;56325;47.030;18.518;2023-07-20T12:04:11;99942.44;;;30.48;34.31
69214;BME280;56325;47.030;18.518;2023-07-20T12:06:45;99951.41;;;30.75;33.79
69214;BME280;56325;47.030;18.518;2023-07-20T12:09:20;99944.91;;;30.63;33.58
69214;BME280;56325;47.030;18.518;2023-07-20T12:11:55;99948.09;;;30.79;33.80
69214;BME280;56325;47.030;18.518;2023-07-20T12:14:30;99938.19;;;31.01;34.13
69214;BME280;56325;47.030;18.518;2023-07-20T12:17:08;99932.13;;;30.74;32.72
69214;BME280;56325;47.030;18.518;2023-07-20T12:19:44;99938.63;;;30.86;29.87
69214;BME280;56325;47.030;18.518;2023-07-20T12:22:19;99930.97;;;30.88;31.99
69214;BME280;56325;47.030;18.518;2023-07-20T12:24:54;99941.75;;;31.23;32.40
69214;BME280;56325;47.030;18.518;2023-07-20T12:27:28;99932.91;;;31.07;31.93
69214;BME280;56325;47.030;18.518;2023-07-20T12:30:04;99930.50;;;31.13;31.59
69214;BME280;56325;47.030;18.518;2023-07-20T12:32:39;99927.16;;;31.61;32.96
69214;BME280;56325;47.030;18.518;2023-07-20T12:35:15;99934.56;;;31.55;31.94
69214;BME280;56325;47.030;18.518;2023-07-20T12:37:49;99927.09;;;31.38;30.79
69214;BME280;56325;47.030;18.518;2023-07-20T12:40:25;99924.03;;;31.46;30.80
69214;BME280;56325;47.030;18.518;2023-07-20T12:42:59;99913.34;;;31.23;29.81
69214;BME280;56325;47.030;18.518;2023-07-20T12:45:34;99921.91;;;31.35;30.31
69214;BME280;56325;47.030;18.518;2023-07-20T12:48:08;99907.91;;;31.27;30.79
69214;BME280;56325;47.030;18.518;2023-07-20T12:50:45;99910.28;;;31.19;30.50
69214;BME280;56325;47.030;18.518;2023-07-20T12:53:19;99903.44;;;31.12;30.56
69214;BME280;56325;47.030;18.518;2023-07-20T12:55:54;99905.25;;;31.41;30.16
69214;BME280;56325;47.030;18.518;2023-07-20T12:58:29;99908.09;;;31.52;29.73
69214;BME280;56325;47.030;18.518;2023-07-20T13:01:03;99900.78;;;31.38;30.15
69214;BME280;56325;47.030;18.518;2023-07-20T13:03:38;99889.88;;;31.22;30.15
69214;BME280;56325;47.030;18.518;2023-07-20T13:06:34;99895.53;;;31.11;30.13
69214;BME280;56325;47.030;18.518;2023-07-20T13:09:09;99898.28;;;31.77;30.91
69214;BME280;56325;47.030;18.518;2023-07-20T13:11:43;99901.37;;;31.81;30.12
69214;BME280;56325;47.030;18.518;2023-07-20T13:14:18;99890.00;;;31.69;30.64
69214;BME280;56325;47.030;18.518;2023-07-20T13:16:53;99893.94;;;32.11;31.40
69214;BME280;56325;47.030;18.518;2023-07-20T13:19:27;99888.44;;;31.45;29.57
69214;BME280;56325;47.030;18.518;2023-07-20T13:22:05;99898.25;;;31.65;30.42
69214;BME280;56325;47.030;18.518;2023-07-20T13:24:39;99888.88;;;31.74;29.98
69214;BME280;56325;47.030;18.518;2023-07-20T13:27:14;99885.56;;;31.89;29.35
69214;BME280;56325;47.030;18.518;2023-07-20T13:29:48;99893.19;;;32.10;31.17
69214;BME280;56325;47.030;18.518;2023-07-20T13:32:23;99886.00;;;32.21;29.84
69214;BME280;56325;47.030;18.518;2023-07-20T13:34:58;99890.34;;;32.22;29.40
69214;BME280;56325;47.030;18.518;2023-07-20T13:37:34;99899.38;;;32.07;29.80
69214;BME280;56325;47.030;18.518;2023-07-20T13:40:10;99897.53;;;31.76;29.06
69214;BME280;56325;47.030;18.518;2023-07-20T13:42:46;99901.31;;;31.57;30.13